»·PEaware :: N701GT KELP-KCRQ

N701GT :: KELP-KCRQ

FLIGHT INFORMATION

Flight Status: Arrived
Operator: Privately registered:
United States
More flights under this callsign
Pilot: Anonymous 17564 (17564)
Aircraft: ECLIPSE 500
(EA50)
More flights by this aircraft type
Origin: KELP El Paso Intl
United States
Destination: KCRQ McClellan-Palomar
United States
More flights between these airports :: More routes between these airports
Route: +ATKNN5 NOCHI T306 TUS J2 GWIRE JLI
File this flight plan on PilotEdge
Remarks: NOAA Real World Weather
Altitude:
(Current/Filed)
32,000ft
Speed:
(Current/Filed)
370kts
Departed: 29-Jun-18 08:05 PM
Arrived: 29-Jun-18 09:59 PM
Distance/Time
Traveled:
557nm/1:54
Distance/Time
To Go:
Arrived

Flight Plot

Page will automatically refresh every two minutes.


Map Options




Map Legend


Flown Route
Filed Route
Departure Airport
Arrival Airport
Navaid (VOR, NDB)
Fix

Horizontal Profiles

Position Reports

Time Latitude Longitude Heading Altitude Ground
Speed
29-Jun-18 19:41 31.793559 -106.387170 313 3931ft 0kts
29-Jun-18 19:42 31.793559 -106.387170 313 3931ft 0kts
29-Jun-18 19:43 31.793559 -106.387170 313 3931ft 0kts
29-Jun-18 19:44 31.793559 -106.387170 313 3931ft 0kts
29-Jun-18 19:45 31.793559 -106.387170 313 3931ft 0kts
29-Jun-18 19:46 31.793559 -106.387170 313 3931ft 0kts
29-Jun-18 19:47 31.793559 -106.387170 313 3931ft 0kts
29-Jun-18 19:48 31.793559 -106.387170 313 3931ft 0kts
29-Jun-18 19:49 31.793559 -106.387170 313 3931ft 0kts
29-Jun-18 19:50 31.793559 -106.387170 313 3931ft 0kts
29-Jun-18 19:51 31.793559 -106.387170 313 3931ft 0kts
29-Jun-18 19:52 31.793559 -106.387170 313 3931ft 0kts
29-Jun-18 19:53 31.794287 -106.386328 42 3932ft 0kts
29-Jun-18 19:54 31.794303 -106.386314 34 3932ft 0kts
29-Jun-18 19:55 31.795227 -106.385349 52 3935ft 0kts
29-Jun-18 19:56 31.795478 -106.384134 82 3936ft 15kts
29-Jun-18 19:57 31.797460 -106.379019 37 3938ft 19kts
29-Jun-18 19:58 31.798910 -106.375631 92 3942ft 11kts
29-Jun-18 19:59 31.799088 -106.371672 62 3946ft 14kts
29-Jun-18 20:00 31.799296 -106.366112 93 3953ft 22kts
29-Jun-18 20:01 31.799293 -106.360405 18 3943ft 6kts
29-Jun-18 20:03 31.799523 -106.360380 1 3943ft 0kts
29-Jun-18 20:04 31.799523 -106.360380 1 3943ft 0kts
29-Jun-18 20:05 31.800443 -106.360334 352 3943ft 11kts
29-Jun-18 20:06 31.801239 -106.373552 274 4109ft 96kts
29-Jun-18 20:07 31.793716 -106.414801 248 5657ft 159kts
29-Jun-18 20:08 31.772625 -106.462760 248 7878ft 173kts
29-Jun-18 20:09 31.770535 -106.513841 304 9923ft 175kts
29-Jun-18 20:10 31.796863 -106.563058 305 11941ft 183kts
29-Jun-18 20:11 31.812085 -106.620449 283 13847ft 194kts
29-Jun-18 20:11 31.820178 -106.671731 282 15488ft 193kts
29-Jun-18 20:13 31.831761 -106.744150 280 17586ft 196kts
29-Jun-18 20:14 31.842015 -106.808322 279 19190ft 203kts
29-Jun-18 20:15 31.852287 -106.873058 279 20756ft 205kts
29-Jun-18 20:16 31.862734 -106.938877 280 22221ft 207kts
29-Jun-18 20:16 31.871526 -106.994323 280 23363ft 209kts
29-Jun-18 20:17 31.882141 -107.061039 279 24682ft 209kts
29-Jun-18 20:18 31.892791 -107.128295 277 25902ft 211kts
29-Jun-18 20:19 31.903528 -107.196536 275 27015ft 213kts
29-Jun-18 20:20 31.914396 -107.265708 273 28045ft 217kts
29-Jun-18 20:21 31.925439 -107.336337 271 28978ft 222kts
29-Jun-18 20:22 31.936557 -107.408025 270 29916ft 224kts
29-Jun-18 20:23 31.947734 -107.480656 270 30778ft 227kts
29-Jun-18 20:24 31.959013 -107.554197 270 31577ft 230kts
29-Jun-18 20:25 31.970466 -107.629168 270 32136ft 241kts
29-Jun-18 20:26 31.982880 -107.710747 271 32146ft 271kts
29-Jun-18 20:27 31.996651 -107.801622 273 32144ft 295kts
29-Jun-18 20:28 32.011577 -107.899767 273 32143ft 314kts
29-Jun-18 20:29 32.027176 -108.003186 273 32142ft 327kts
29-Jun-18 20:30 32.043227 -108.110336 273 32142ft 337kts
29-Jun-18 20:31 32.059466 -108.219439 273 32141ft 343kts
29-Jun-18 20:32 32.075822 -108.331116 275 32138ft 349kts
29-Jun-18 20:33 32.092558 -108.443911 276 32248ft 351kts
29-Jun-18 20:34 32.108967 -108.555951 275 32242ft 354kts
29-Jun-18 20:35 32.124972 -108.666181 275 32245ft 356kts
29-Jun-18 20:36 32.141353 -108.779458 275 32245ft 358kts
29-Jun-18 20:37 32.157856 -108.894791 274 32244ft 361kts
29-Jun-18 20:38 32.174381 -109.011157 274 32244ft 365kts
29-Jun-18 20:39 32.191074 -109.129539 274 32102ft 372kts
29-Jun-18 20:40 32.207748 -109.248399 274 31997ft 375kts
29-Jun-18 20:41 32.224018 -109.365094 274 31996ft 374kts
29-Jun-18 20:42 32.240685 -109.485634 274 31996ft 372kts
29-Jun-18 20:43 32.257143 -109.605585 274 31996ft 370kts
29-Jun-18 20:44 32.271647 -109.711937 273 31998ft 368kts
29-Jun-18 20:45 32.287727 -109.830801 274 31998ft 367kts
29-Jun-18 20:46 32.303709 -109.949579 274 31998ft 366kts
29-Jun-18 20:47 32.319537 -110.068158 274 31985ft 367kts
29-Jun-18 20:48 32.335293 -110.187108 274 31943ft 368kts
29-Jun-18 20:49 32.350956 -110.306265 274 31943ft 368kts
29-Jun-18 20:50 32.366518 -110.425460 274 31942ft 367kts
29-Jun-18 20:51 32.381920 -110.544362 274 31942ft 366kts
29-Jun-18 20:52 32.397044 -110.662029 273 31944ft 366kts
29-Jun-18 20:53 32.410241 -110.765636 274 31945ft 366kts
29-Jun-18 20:54 32.424802 -110.880532 274 31945ft 365kts
29-Jun-18 20:55 32.439031 -110.993510 274 31927ft 365kts
29-Jun-18 20:56 32.453792 -111.111715 274 31926ft 365kts
29-Jun-18 20:57 32.468441 -111.229978 274 31925ft 364kts
29-Jun-18 20:58 32.482941 -111.348357 275 31925ft 363kts
29-Jun-18 20:59 32.497168 -111.464755 275 31925ft 363kts
29-Jun-18 21:00 32.511362 -111.582039 275 31924ft 363kts
29-Jun-18 21:01 32.525508 -111.699386 274 31927ft 363kts
29-Jun-18 21:02 32.539336 -111.816741 275 31883ft 365kts
29-Jun-18 21:03 32.553452 -111.935831 275 31881ft 366kts
29-Jun-18 21:04 32.567392 -112.054786 275 31899ft 366kts
29-Jun-18 21:05 32.581211 -112.173802 275 31908ft 366kts
29-Jun-18 21:06 32.594831 -112.292886 276 31848ft 368kts
29-Jun-18 21:07 32.608067 -112.408394 276 31807ft 368kts
29-Jun-18 21:08 32.621615 -112.527831 276 31806ft 368kts
29-Jun-18 21:09 32.635079 -112.647781 276 31806ft 367kts
29-Jun-18 21:10 32.648286 -112.767014 276 31808ft 367kts
29-Jun-18 21:11 32.661539 -112.887048 277 31808ft 367kts
29-Jun-18 21:12 32.674677 -113.007030 277 31807ft 367kts
29-Jun-18 21:13 32.687704 -113.127247 277 31807ft 367kts
29-Jun-18 21:14 32.700572 -113.247155 277 31807ft 367kts
29-Jun-18 21:15 32.713248 -113.366497 277 31825ft 366kts
29-Jun-18 21:16 32.725859 -113.486142 277 31824ft 365kts
29-Jun-18 21:17 32.738232 -113.604699 277 31910ft 362kts
29-Jun-18 21:18 32.750297 -113.721376 276 31945ft 362kts
29-Jun-18 21:19 32.762432 -113.840262 277 31945ft 364kts
29-Jun-18 21:20 32.774421 -113.959342 274 31942ft 365kts
29-Jun-18 21:21 32.774458 -114.079620 270 31944ft 365kts
29-Jun-18 21:22 32.773353 -114.200029 270 31944ft 366kts
29-Jun-18 21:23 32.771891 -114.320712 270 31943ft 366kts
29-Jun-18 21:24 32.770352 -114.441102 271 31943ft 367kts
29-Jun-18 21:25 32.768701 -114.561664 271 31939ft 368kts
29-Jun-18 21:26 32.766755 -114.677628 270 31798ft 371kts
29-Jun-18 21:27 32.764545 -114.791419 271 31797ft 371kts
29-Jun-18 21:28 32.762208 -114.914004 271 31797ft 371kts
29-Jun-18 21:29 32.759896 -115.027432 271 31788ft 372kts
29-Jun-18 21:30 32.757266 -115.149901 271 31787ft 372kts
29-Jun-18 21:31 32.754464 -115.272480 272 31787ft 372kts
29-Jun-18 21:32 32.751679 -115.392289 272 31779ft 373kts
29-Jun-18 21:33 32.749345 -115.515429 275 31778ft 371kts
29-Jun-18 21:34 32.752236 -115.637772 276 31778ft 371kts
29-Jun-18 21:35 32.755027 -115.755007 276 32355ft 336kts
29-Jun-18 21:36 32.757724 -115.866319 276 29987ft 332kts
29-Jun-18 21:37 32.791846 -115.960252 304 27967ft 308kts
29-Jun-18 21:38 32.837537 -116.044329 305 25957ft 301kts
29-Jun-18 21:39 32.883344 -116.126425 304 23962ft 297kts
29-Jun-18 21:40 32.925819 -116.202218 305 23960ft 271kts
29-Jun-18 21:41 32.969462 -116.280010 305 23990ft 294kts
29-Jun-18 21:42 33.016269 -116.363515 305 23989ft 309kts
29-Jun-18 21:43 33.057949 -116.438055 305 23995ft 316kts
29-Jun-18 21:44 33.106161 -116.524407 305 23999ft 319kts
29-Jun-18 21:45 33.135777 -116.593735 275 22770ft 306kts
29-Jun-18 21:46 33.137628 -116.679385 272 20143ft 287kts
29-Jun-18 21:47 33.139015 -116.768701 272 17242ft 274kts
29-Jun-18 21:48 33.140165 -116.857180 272 14274ft 267kts
29-Jun-18 21:49 33.141006 -116.940247 272 14002ft 254kts
29-Jun-18 21:50 33.141606 -117.015967 272 13998ft 208kts
29-Jun-18 21:51 33.141847 -117.078740 272 13999ft 193kts
29-Jun-18 21:52 33.097889 -117.101537 141 11714ft 243kts
29-Jun-18 21:53 33.113647 -117.047116 356 7909ft 213kts
29-Jun-18 21:54 33.160463 -117.071782 286 4052ft 165kts
29-Jun-18 21:55 33.153874 -117.121833 258 3070ft 161kts
29-Jun-18 21:56 33.145337 -117.174517 257 2086ft 166kts
29-Jun-18 21:57 33.137254 -117.224596 257 1189ft 136kts
29-Jun-18 21:58 33.130056 -117.269023 256 410ft 131kts
29-Jun-18 21:59 33.126709 -117.287771 167 303ft 0kts
29-Jun-18 22:00 33.126709 -117.287771 167 303ft 0kts
29-Jun-18 22:01 33.126541 -117.285627 78 303ft 23kts
29-Jun-18 22:02 33.127604 -117.277093 122 303ft 23kts
29-Jun-18 22:03 33.127359 -117.275649 2 303ft 0kts
29-Jun-18 22:04 33.127359 -117.275649 2 303ft 0kts

Navigation Log

Ident Type
Flight plan parsing failed, navigation log unavailable